Parkdale, Ohio
Current Conditions -  °F | °C
As of 9:53 PM on Sunday 21 Dec 2014 (Local Time) from KHAO Reporting Station
Haze Haze  
Wind Chill: 24°   Ceiling: Unl
Heat Index: 24°   Visibility: 6mi
Dew Point: 22°   Wind: 3mph
Humidity: 91%   Direction: 80°E
Pressure: 30.16"   Gusts: NA
Location:  39.2843°N, 84.5257°W
Report Text: KHAO 220253Z AUTO 08003KT 6SM BR CLR M04/M06 A3016 RMK AO2 SLP221 T10441056 58007
Loading
Personal Weather Stations






























Interactive Weather Map New forecast layout! Learn more

10-Day Weather Forecast

Advertisements
Track Severe Weather on mobile